createdAt,value
2023-01-19T00:00:51.394Z,82.70
2023-01-19T00:03:18.425Z,82.41
2023-01-19T00:05:45.568Z,81.76
2023-01-19T00:08:15.453Z,81.78
2023-01-19T00:10:44.777Z,82.45
2023-01-19T00:13:11.777Z,82.20
2023-01-19T00:15:38.560Z,82.57
2023-01-19T00:18:05.700Z,82.79
2023-01-19T00:20:32.809Z,83.08
2023-01-19T00:22:59.964Z,82.74
2023-01-19T00:25:27.045Z,82.70
2023-01-19T00:27:53.999Z,82.54
2023-01-19T00:30:20.711Z,82.73
2023-01-19T00:32:47.423Z,83.04
2023-01-19T00:35:14.249Z,82.64
2023-01-19T00:37:41.011Z,82.44
2023-01-19T00:40:08.678Z,82.93
2023-01-19T00:42:41.064Z,82.51
2023-01-19T00:45:09.860Z,81.77
2023-01-19T00:47:36.627Z,82.19
2023-01-19T00:50:03.669Z,82.34
2023-01-19T00:52:30.382Z,82.55
2023-01-19T00:54:57.088Z,82.61
2023-01-19T00:57:23.856Z,81.82
2023-01-19T00:59:50.506Z,82.46
2023-01-19T01:02:17.474Z,82.22
2023-01-19T01:04:44.270Z,82.87
2023-01-19T01:07:10.980Z,82.60
2023-01-19T01:09:37.664Z,82.05
2023-01-19T01:12:04.708Z,82.41
2023-01-19T01:14:32.899Z,82.13
2023-01-19T01:17:00.547Z,82.88
2023-01-19T01:19:27.378Z,82.68
2023-01-19T01:21:55.403Z,82.87
2023-01-19T01:24:22.344Z,82.86
2023-01-19T01:26:48.996Z,82.38
2023-01-19T01:29:15.763Z,82.76
2023-01-19T01:31:42.468Z,82.90
2023-01-19T01:34:09.184Z,82.69
2023-01-19T01:36:36.057Z,82.38
2023-01-19T01:39:03.651Z,82.96
2023-01-19T01:41:30.570Z,83.51
2023-01-19T01:43:58.846Z,82.66
2023-01-19T01:46:27.116Z,82.55
2023-01-19T01:49:13.346Z,83.08
2023-01-19T01:51:47.026Z,83.43
2023-01-19T01:54:19.377Z,83.27
2023-01-19T01:56:52.431Z,82.86
2023-01-19T01:59:34.599Z,82.72
2023-01-19T02:02:34.459Z,83.34
2023-01-19T02:05:12.207Z,83.17
2023-01-19T02:08:05.318Z,82.91
2023-01-19T02:10:52.235Z,83.11
2023-01-19T02:13:22.982Z,82.94
2023-01-19T02:16:02.933Z,83.10
2023-01-19T02:18:31.347Z,83.44
2023-01-19T02:21:22.688Z,83.81
2023-01-19T02:23:54.542Z,84.11
2023-01-19T02:26:30.989Z,84.14
2023-01-19T02:29:02.949Z,84.13
2023-01-19T02:31:31.592Z,83.95
2023-01-19T02:34:00.538Z,83.99
2023-01-19T02:36:35.182Z,83.85
2023-01-19T02:39:04.527Z,83.93
2023-01-19T02:41:38.779Z,83.87
2023-01-19T02:44:08.285Z,83.86
2023-01-19T02:46:35.747Z,83.65
2023-01-19T02:49:02.641Z,83.29
2023-01-19T02:51:29.608Z,83.43
2023-01-19T02:54:17.283Z,83.57
2023-01-19T02:57:12.289Z,83.25
2023-01-19T03:00:03.212Z,83.61
2023-01-19T03:02:52.927Z,83.41
2023-01-19T03:05:48.410Z,83.84
2023-01-19T03:08:26.805Z,83.75
2023-01-19T03:11:06.204Z,83.92
2023-01-19T03:13:44.062Z,84.10
2023-01-19T03:16:24.954Z,84.25
2023-01-19T03:18:55.571Z,84.09
2023-01-19T03:21:26.599Z,84.54
2023-01-19T03:23:56.924Z,83.91
2023-01-19T03:26:29.726Z,83.78
2023-01-19T03:29:00.295Z,84.26
2023-01-19T03:31:31.983Z,84.08
2023-01-19T03:34:06.786Z,84.24
2023-01-19T03:36:42.709Z,84.17
2023-01-19T03:39:11.261Z,84.36
2023-01-19T03:41:39.655Z,84.69
2023-01-19T03:44:07.515Z,85.15
2023-01-19T03:46:34.667Z,84.41
2023-01-19T03:49:01.185Z,84.35
2023-01-19T03:51:27.830Z,85.38
2023-01-19T03:53:54.305Z,85.28
2023-01-19T03:56:25.385Z,85.10
2023-01-19T03:58:56.284Z,85.18
2023-01-19T04:01:25.030Z,85.18
2023-01-19T04:03:53.042Z,85.09
2023-01-19T04:06:20.557Z,85.02
2023-01-19T04:08:51.229Z,85.46
2023-01-19T04:11:17.875Z,84.97
2023-01-19T04:13:44.807Z,85.33
2023-01-19T04:16:12.289Z,85.22
2023-01-19T04:18:39.000Z,85.58
2023-01-19T04:21:07.488Z,85.79
2023-01-19T04:23:34.766Z,85.86
2023-01-19T04:26:03.856Z,85.36
2023-01-19T04:28:30.464Z,85.44
2023-01-19T04:30:57.223Z,85.55
2023-01-19T04:33:24.354Z,85.03
2023-01-19T04:35:54.417Z,85.26
2023-01-19T04:38:21.621Z,85.72
2023-01-19T04:40:52.769Z,85.11
2023-01-19T04:43:20.498Z,85.22
2023-01-19T04:45:47.588Z,85.69
2023-01-19T04:48:14.741Z,86.05
2023-01-19T04:50:41.929Z,85.68
2023-01-19T04:53:08.776Z,86.03
2023-01-19T04:55:37.246Z,86.32
2023-01-19T04:58:04.119Z,85.92
2023-01-19T05:00:31.333Z,85.60
2023-01-19T05:02:58.263Z,85.55
2023-01-19T05:05:25.080Z,86.59
2023-01-19T05:07:51.807Z,86.80
2023-01-19T05:10:20.198Z,86.66
2023-01-19T05:12:46.891Z,86.19
2023-01-19T05:15:13.649Z,87.22
2023-01-19T05:17:40.290Z,86.35
2023-01-19T05:20:09.403Z,87.49
2023-01-19T05:22:36.141Z,86.92
2023-01-19T05:25:03.044Z,87.52
2023-01-19T05:27:29.795Z,88.06
2023-01-19T05:29:56.532Z,88.17
2023-01-19T05:32:23.196Z,88.26
2023-01-19T05:34:49.970Z,88.11
2023-01-19T05:37:16.676Z,87.99
2023-01-19T05:39:43.361Z,88.52
2023-01-19T05:42:10.113Z,88.18
2023-01-19T05:44:36.793Z,87.75
2023-01-19T05:47:03.592Z,88.01
2023-01-19T05:49:30.401Z,88.52
2023-01-19T05:51:57.076Z,88.69
2023-01-19T05:54:23.824Z,88.66
2023-01-19T05:56:50.531Z,88.79
2023-01-19T05:59:23.809Z,89.20
2023-01-19T06:01:54.272Z,89.52
2023-01-19T06:04:21.374Z,88.86
2023-01-19T06:06:48.669Z,89.54
2023-01-19T06:09:15.241Z,89.37
2023-01-19T06:11:41.817Z,88.80
2023-01-19T06:14:09.869Z,89.48
2023-01-19T06:16:36.586Z,89.36
2023-01-19T06:19:03.194Z,89.72
2023-01-19T06:21:29.817Z,90.40
2023-01-19T06:23:56.313Z,89.63
2023-01-19T06:26:23.134Z,90.59
2023-01-19T06:28:51.172Z,90.17
2023-01-19T06:31:18.126Z,90.38
2023-01-19T06:33:44.639Z,89.73
2023-01-19T06:36:11.140Z,90.32
2023-01-19T06:38:37.661Z,90.71
2023-01-19T06:41:04.756Z,89.69
2023-01-19T06:43:31.823Z,90.37
2023-01-19T06:46:00.456Z,89.74
2023-01-19T06:48:27.093Z,89.92
2023-01-19T06:50:53.617Z,90.29
2023-01-19T06:53:22.181Z,89.72
2023-01-19T06:55:48.824Z,91.10
2023-01-19T06:58:15.566Z,90.35
2023-01-19T07:00:42.883Z,89.87
2023-01-19T07:03:09.963Z,90.79
2023-01-19T07:05:36.754Z,90.54
2023-01-19T07:08:03.955Z,90.05
2023-01-19T07:11:21.618Z,90.35
2023-01-19T07:13:17.067Z,90.32
2023-01-19T07:15:44.198Z,90.44
2023-01-19T07:18:10.704Z,90.61
2023-01-19T07:20:38.110Z,90.48
2023-01-19T07:23:04.941Z,90.87
2023-01-19T07:25:31.861Z,90.63
2023-01-19T07:27:59.992Z,90.66
2023-01-19T07:30:26.840Z,90.30
2023-01-19T07:32:58.158Z,91.70
2023-01-19T07:35:25.302Z,91.44
2023-01-19T07:37:51.811Z,91.05
2023-01-19T07:40:18.432Z,91.57
2023-01-19T07:42:50.290Z,91.20
2023-01-19T07:45:17.499Z,91.29
2023-01-19T07:47:44.724Z,91.07
2023-01-19T07:50:12.833Z,91.67
2023-01-19T07:52:39.635Z,92.33
2023-01-19T07:55:06.533Z,91.46
2023-01-19T07:57:33.036Z,91.37
2023-01-19T07:59:59.947Z,90.93
2023-01-19T08:02:27.018Z,91.08
2023-01-19T08:04:53.892Z,91.10
2023-01-19T08:07:20.669Z,90.91
2023-01-19T08:09:47.384Z,91.34
2023-01-19T08:12:14.120Z,91.06
2023-01-19T08:14:40.820Z,90.55
2023-01-19T08:17:07.508Z,90.96
2023-01-19T08:19:34.216Z,91.21
2023-01-19T08:22:01.022Z,90.86
2023-01-19T08:24:29.043Z,90.73
2023-01-19T08:27:00.240Z,91.22
2023-01-19T08:29:29.624Z,91.42
2023-01-19T08:31:58.859Z,90.68
2023-01-19T08:34:25.987Z,91.42
2023-01-19T08:36:52.573Z,90.95
2023-01-19T08:39:19.114Z,90.76
2023-01-19T08:41:45.604Z,91.37
2023-01-19T08:44:12.117Z,91.13
2023-01-19T08:46:38.720Z,91.16
2023-01-19T08:49:05.278Z,91.68
2023-01-19T08:51:31.877Z,91.34
2023-01-19T08:53:58.464Z,90.79
2023-01-19T08:56:25.861Z,91.11
2023-01-19T08:59:07.634Z,90.99
2023-01-19T09:01:37.178Z,91.50
2023-01-19T09:04:04.021Z,90.67
2023-01-19T09:06:30.552Z,91.11
2023-01-19T09:08:57.785Z,90.86
2023-01-19T09:11:24.323Z,91.38
2023-01-19T09:13:51.058Z,90.76
2023-01-19T09:16:17.611Z,90.99
2023-01-19T09:18:45.874Z,91.18
2023-01-19T09:21:12.565Z,91.39
2023-01-19T09:23:39.190Z,91.03
2023-01-19T09:26:07.236Z,91.07
2023-01-19T09:28:34.144Z,90.80
2023-01-19T09:31:05.445Z,91.05
2023-01-19T09:33:32.066Z,91.12
2023-01-19T09:35:58.662Z,91.09
2023-01-19T09:38:25.837Z,91.07
2023-01-19T09:40:55.659Z,91.41
2023-01-19T09:43:32.627Z,91.33
2023-01-19T09:46:02.545Z,91.07
2023-01-19T09:48:28.981Z,91.01
2023-01-19T09:51:00.908Z,90.85
2023-01-19T09:53:53.226Z,91.38
2023-01-19T09:56:21.086Z,91.41
2023-01-19T09:58:49.578Z,91.37
2023-01-19T10:01:28.812Z,91.82
2023-01-19T10:04:30.068Z,91.44
2023-01-19T10:07:06.580Z,91.01
2023-01-19T10:09:44.374Z,90.90
2023-01-19T10:12:21.052Z,91.22
2023-01-19T10:15:18.018Z,91.02
2023-01-19T10:18:16.395Z,91.01
2023-01-19T10:20:49.365Z,90.46
2023-01-19T10:23:25.038Z,91.39
2023-01-19T10:25:52.245Z,91.23
2023-01-19T10:28:23.680Z,90.69
2023-01-19T10:30:51.452Z,91.62
2023-01-19T10:33:18.152Z,90.50
2023-01-19T10:35:45.204Z,91.11
2023-01-19T10:38:14.317Z,91.21
2023-01-19T10:40:59.345Z,90.70
2023-01-19T10:43:37.754Z,91.55
2023-01-19T10:46:18.080Z,91.54
2023-01-19T10:48:48.948Z,91.30
2023-01-19T10:51:16.261Z,91.26
2023-01-19T10:53:53.241Z,90.99
2023-01-19T10:56:24.754Z,91.23
2023-01-19T10:58:51.541Z,91.46
2023-01-19T11:01:21.814Z,91.44
2023-01-19T11:03:48.740Z,91.49
2023-01-19T11:06:21.121Z,91.46
2023-01-19T11:08:52.577Z,91.19
2023-01-19T11:11:24.615Z,91.24
2023-01-19T11:14:10.615Z,91.41
2023-01-19T11:16:38.865Z,91.31
2023-01-19T11:19:14.556Z,91.42
2023-01-19T11:21:41.085Z,91.21
2023-01-19T11:24:10.875Z,91.74
2023-01-19T11:26:44.208Z,90.88
2023-01-19T11:29:37.195Z,91.33
2023-01-19T11:32:19.031Z,90.76
2023-01-19T11:34:45.561Z,91.10
2023-01-19T11:37:30.509Z,91.82
2023-01-19T11:39:59.835Z,90.66
2023-01-19T11:42:30.373Z,91.64
2023-01-19T11:45:13.069Z,91.70
2023-01-19T11:47:45.045Z,91.29
2023-01-19T11:50:25.309Z,91.27
2023-01-19T11:52:59.154Z,91.05
2023-01-19T11:55:39.676Z,91.01
2023-01-19T11:58:06.462Z,90.29
2023-01-19T12:00:44.536Z,90.58
2023-01-19T12:03:34.611Z,91.06
2023-01-19T12:06:05.749Z,90.98
2023-01-19T12:08:39.753Z,90.84
2023-01-19T12:11:09.286Z,90.85
2023-01-19T12:13:37.501Z,90.96
2023-01-19T12:16:23.711Z,90.26
2023-01-19T12:19:03.573Z,89.99
2023-01-19T12:21:30.115Z,90.21
2023-01-19T12:24:05.619Z,90.00
2023-01-19T12:26:38.382Z,89.95
2023-01-19T12:29:11.199Z,89.60
2023-01-19T12:31:39.323Z,90.35
2023-01-19T12:34:27.172Z,89.82
2023-01-19T12:36:59.756Z,90.19
2023-01-19T12:39:26.568Z,90.40
2023-01-19T12:42:13.088Z,90.21
2023-01-19T12:44:41.509Z,89.99
2023-01-19T12:47:12.914Z,89.73
2023-01-19T12:49:45.560Z,90.08
2023-01-19T12:52:28.867Z,90.37
2023-01-19T12:55:02.136Z,89.75
2023-01-19T12:57:38.252Z,90.34
2023-01-19T13:00:23.895Z,90.43
2023-01-19T13:02:55.592Z,90.31
2023-01-19T13:05:33.472Z,90.06
2023-01-19T13:08:03.224Z,90.03
2023-01-19T13:11:02.191Z,90.40
2023-01-19T13:13:38.578Z,90.03
2023-01-19T13:16:20.515Z,89.82
2023-01-19T13:18:55.424Z,90.20
2023-01-19T13:21:34.656Z,90.13
2023-01-19T13:24:03.877Z,90.38
2023-01-19T13:26:33.418Z,89.92
2023-01-19T13:29:08.481Z,89.34
2023-01-19T13:31:37.372Z,89.54
2023-01-19T13:34:11.035Z,90.02
2023-01-19T13:36:43.452Z,90.35
2023-01-19T13:39:21.721Z,89.93
2023-01-19T13:41:52.099Z,90.04
2023-01-19T13:44:25.937Z,90.47
2023-01-19T13:46:53.920Z,90.22
2023-01-19T13:49:35.118Z,90.43
2023-01-19T13:52:05.395Z,90.40
2023-01-19T13:54:31.926Z,90.10
2023-01-19T13:56:58.416Z,89.97
2023-01-19T13:59:24.972Z,89.67
2023-01-19T14:01:54.125Z,89.86
2023-01-19T14:04:30.002Z,89.62
2023-01-19T14:07:00.756Z,89.92
2023-01-19T14:09:27.311Z,89.72
2023-01-19T14:12:17.662Z,89.52
2023-01-19T14:14:47.217Z,89.57
2023-01-19T14:17:21.785Z,89.86
2023-01-19T14:19:56.720Z,89.71
2023-01-19T14:22:45.735Z,90.05
2023-01-19T14:25:32.298Z,89.84
2023-01-19T14:28:42.159Z,89.61
2023-01-19T14:31:24.080Z,89.42
2023-01-19T14:33:53.636Z,89.78
2023-01-19T14:36:36.081Z,89.81
2023-01-19T14:39:04.777Z,90.31
2023-01-19T14:41:47.817Z,89.84
2023-01-19T14:44:31.905Z,89.97
2023-01-19T14:46:59.544Z,90.15
2023-01-19T14:49:40.022Z,89.92
2023-01-19T14:52:23.551Z,90.23
2023-01-19T14:54:50.668Z,90.48
2023-01-19T14:57:17.172Z,90.09
2023-01-19T14:59:48.336Z,90.27
2023-01-19T15:02:16.012Z,90.21
2023-01-19T15:04:42.540Z,90.01
2023-01-19T15:07:17.419Z,90.37
2023-01-19T15:10:05.559Z,90.04
2023-01-19T15:12:32.111Z,89.77
2023-01-19T15:14:58.624Z,89.75
2023-01-19T15:17:28.103Z,90.14
2023-01-19T15:19:56.149Z,89.74
2023-01-19T15:22:26.741Z,89.86
2023-01-19T15:24:57.366Z,89.39
2023-01-19T15:27:24.219Z,89.81
2023-01-19T15:29:50.701Z,89.56
2023-01-19T15:32:17.162Z,89.48
2023-01-19T15:34:43.684Z,89.32
2023-01-19T15:37:10.220Z,89.07
2023-01-19T15:39:36.743Z,89.19
2023-01-19T15:42:03.715Z,89.48
2023-01-19T15:44:30.467Z,89.11
2023-01-19T15:46:57.673Z,89.63
2023-01-19T15:49:24.621Z,89.01
2023-01-19T15:51:54.668Z,89.11
2023-01-19T15:54:23.967Z,88.92
2023-01-19T15:56:52.585Z,89.06
2023-01-19T15:59:19.316Z,88.74
2023-01-19T16:01:46.119Z,88.94
2023-01-19T16:04:13.186Z,89.10
2023-01-19T16:06:40.155Z,89.37
2023-01-19T16:09:07.639Z,88.89
2023-01-19T16:11:35.169Z,88.81
2023-01-19T16:14:02.378Z,88.47
2023-01-19T16:16:29.338Z,89.18
2023-01-19T16:18:56.537Z,88.78
2023-01-19T16:21:24.008Z,89.21
2023-01-19T16:23:51.319Z,88.62
2023-01-19T16:26:30.596Z,88.52
2023-01-19T16:28:59.753Z,88.79
2023-01-19T16:31:27.124Z,88.73
2023-01-19T16:33:53.789Z,88.58
2023-01-19T16:36:27.262Z,88.84
2023-01-19T16:38:54.753Z,88.49
2023-01-19T16:41:21.507Z,88.94
2023-01-19T16:43:54.534Z,88.71
2023-01-19T16:46:24.368Z,88.55
2023-01-19T16:48:51.965Z,88.95
2023-01-19T16:51:19.723Z,88.53
2023-01-19T16:53:48.822Z,88.14
2023-01-19T16:56:15.552Z,89.04
2023-01-19T16:58:42.889Z,88.73
2023-01-19T17:01:20.028Z,88.54
2023-01-19T17:03:47.361Z,88.19
2023-01-19T17:06:17.997Z,88.12
2023-01-19T17:08:44.841Z,88.25
2023-01-19T17:11:14.614Z,88.40
2023-01-19T17:13:41.447Z,88.40
2023-01-19T17:16:09.240Z,88.56
2023-01-19T17:18:37.791Z,88.92
2023-01-19T17:21:07.157Z,88.19
2023-01-19T17:23:36.055Z,88.35
2023-01-19T17:26:04.411Z,87.71
2023-01-19T17:28:31.431Z,88.06
2023-01-19T17:31:06.047Z,88.33
2023-01-19T17:33:33.561Z,88.34
2023-01-19T17:36:09.835Z,88.74
2023-01-19T17:38:36.948Z,88.13
2023-01-19T17:41:14.904Z,88.50
2023-01-19T17:43:41.988Z,88.74
2023-01-19T17:46:08.978Z,88.68
2023-01-19T17:48:35.707Z,88.29
2023-01-19T17:51:06.604Z,88.71
2023-01-19T17:53:35.584Z,88.21
2023-01-19T17:56:06.673Z,88.64
2023-01-19T17:58:33.605Z,88.17
2023-01-19T18:01:08.452Z,88.08
2023-01-19T18:03:35.217Z,88.22
2023-01-19T18:06:01.891Z,87.89
2023-01-19T18:08:28.548Z,88.50
2023-01-19T18:10:57.042Z,88.94
2023-01-19T18:13:24.572Z,88.32
2023-01-19T18:15:52.060Z,88.69
2023-01-19T18:18:19.122Z,88.64
2023-01-19T18:20:45.828Z,88.70
2023-01-19T18:23:13.524Z,88.15
2023-01-19T18:25:40.354Z,88.20
2023-01-19T18:28:07.427Z,88.01
2023-01-19T18:30:35.592Z,88.13
2023-01-19T18:33:02.683Z,88.20
2023-01-19T18:35:29.550Z,87.95
2023-01-19T18:37:58.373Z,88.25
2023-01-19T18:40:25.683Z,88.10
2023-01-19T18:42:52.361Z,87.64
2023-01-19T18:45:19.057Z,87.99
2023-01-19T18:47:45.738Z,88.18
2023-01-19T18:50:14.230Z,87.93
2023-01-19T18:52:41.085Z,87.72
2023-01-19T18:55:08.109Z,87.65
2023-01-19T18:57:35.655Z,88.10
2023-01-19T19:00:04.053Z,88.16
2023-01-19T19:02:30.789Z,88.39
2023-01-19T19:04:57.448Z,87.90
2023-01-19T19:07:24.537Z,88.08
2023-01-19T19:09:51.262Z,87.56
2023-01-19T19:12:17.963Z,87.92
2023-01-19T19:14:44.679Z,87.63
2023-01-19T19:17:11.330Z,87.60
2023-01-19T19:19:38.188Z,87.73
2023-01-19T19:22:04.964Z,87.54
2023-01-19T19:24:31.688Z,88.05
2023-01-19T19:26:58.458Z,87.46
2023-01-19T19:29:25.157Z,87.94
2023-01-19T19:31:51.817Z,87.78
2023-01-19T19:34:18.749Z,87.79
2023-01-19T19:36:46.022Z,87.46
2023-01-19T19:39:12.774Z,87.78
2023-01-19T19:41:39.565Z,87.96
2023-01-19T19:44:06.264Z,87.77
2023-01-19T19:46:32.997Z,88.21
2023-01-19T19:48:59.735Z,87.93
2023-01-19T19:51:28.062Z,87.67
2023-01-19T19:53:56.762Z,87.37
2023-01-19T19:56:25.161Z,87.55
2023-01-19T19:58:54.694Z,87.30
2023-01-19T20:01:27.003Z,87.92
2023-01-19T20:03:54.516Z,87.69
2023-01-19T20:06:25.323Z,87.83
2023-01-19T20:08:53.738Z,87.78
2023-01-19T20:11:23.285Z,88.03
2023-01-19T20:13:50.710Z,87.44
2023-01-19T20:16:21.513Z,87.83
2023-01-19T20:18:53.926Z,87.90
2023-01-19T20:21:24.671Z,88.10
2023-01-19T20:23:53.015Z,88.28
2023-01-19T20:26:22.808Z,87.90
2023-01-19T20:28:49.590Z,88.69
2023-01-19T20:31:19.136Z,88.09
2023-01-19T20:33:48.303Z,88.18
2023-01-19T20:36:15.266Z,88.24
2023-01-19T20:38:42.706Z,88.51
2023-01-19T20:41:11.062Z,87.75
2023-01-19T20:43:38.081Z,88.20
2023-01-19T20:46:05.318Z,88.32
2023-01-19T20:48:32.093Z,88.61
2023-01-19T20:51:00.633Z,88.70
2023-01-19T20:53:28.489Z,89.27
2023-01-19T20:55:55.198Z,89.22
2023-01-19T20:58:22.967Z,88.64
2023-01-19T21:00:50.269Z,89.47
2023-01-19T21:03:17.188Z,88.98
2023-01-19T21:05:46.537Z,89.37
2023-01-19T21:08:14.703Z,88.86
2023-01-19T21:10:41.953Z,89.53
2023-01-19T21:13:08.832Z,89.52
2023-01-19T21:15:35.610Z,90.23
2023-01-19T21:18:02.638Z,89.75
2023-01-19T21:20:32.917Z,90.41
2023-01-19T21:22:59.634Z,90.02
2023-01-19T21:25:26.297Z,89.74
2023-01-19T21:27:53.024Z,90.01
2023-01-19T21:30:19.801Z,90.17
2023-01-19T21:32:46.547Z,90.41
2023-01-19T21:35:13.615Z,90.67
2023-01-19T21:37:40.486Z,90.57
2023-01-19T21:40:07.809Z,90.23
2023-01-19T21:42:34.491Z,91.14
2023-01-19T21:45:01.188Z,91.45
2023-01-19T21:47:27.867Z,91.03
2023-01-19T21:49:54.794Z,91.95
2023-01-19T21:52:21.463Z,92.04
2023-01-19T21:54:48.141Z,91.99
2023-01-19T21:57:15.204Z,91.97
2023-01-19T21:59:41.981Z,91.46
2023-01-19T22:02:11.592Z,91.72
2023-01-19T22:04:39.368Z,91.83
2023-01-19T22:07:06.544Z,91.14
2023-01-19T22:09:34.998Z,91.33
2023-01-19T22:12:02.068Z,91.47
2023-01-19T22:14:29.083Z,91.49
2023-01-19T22:16:55.835Z,91.25
2023-01-19T22:19:22.741Z,91.64
2023-01-19T22:21:49.407Z,91.29
2023-01-19T22:24:16.052Z,91.09
2023-01-19T22:26:42.780Z,90.91
2023-01-19T22:29:11.256Z,91.20
2023-01-19T22:31:39.100Z,90.89
2023-01-19T22:34:10.176Z,90.97
2023-01-19T22:36:38.022Z,90.72
2023-01-19T22:39:08.389Z,91.31
2023-01-19T22:41:40.470Z,90.80
2023-01-19T22:44:11.682Z,90.54
2023-01-19T22:46:38.871Z,90.72
2023-01-19T22:49:07.945Z,90.82
2023-01-19T22:51:35.599Z,90.74
2023-01-19T22:54:02.902Z,90.56
2023-01-19T22:56:31.655Z,90.46
2023-01-19T22:58:59.407Z,90.48
2023-01-19T23:01:29.107Z,90.55
2023-01-19T23:03:56.088Z,90.73
2023-01-19T23:06:25.703Z,90.55
2023-01-19T23:08:54.860Z,90.48
2023-01-19T23:11:27.049Z,90.37
2023-01-19T23:13:53.986Z,90.09
2023-01-19T23:16:20.813Z,90.59
2023-01-19T23:18:51.759Z,90.82
2023-01-19T23:21:20.226Z,90.83
2023-01-19T23:23:46.821Z,91.17
2023-01-19T23:26:18.444Z,90.74
2023-01-19T23:28:46.241Z,91.08
2023-01-19T23:31:14.117Z,91.24
2023-01-19T23:33:41.586Z,90.90
2023-01-19T23:36:08.421Z,90.79
2023-01-19T23:38:34.925Z,90.62
2023-01-19T23:41:01.418Z,91.09
2023-01-19T23:43:27.894Z,91.71
2023-01-19T23:45:54.420Z,91.47
2023-01-19T23:48:21.163Z,91.40
2023-01-19T23:50:47.712Z,91.97
2023-01-19T23:53:14.207Z,91.46
2023-01-19T23:55:40.702Z,92.07
2023-01-19T23:58:07.221Z,91.77
